createdAt,value
2023-04-27T00:03:10.667Z,6.93
2023-04-27T00:05:43.199Z,6.32
2023-04-27T00:08:11.725Z,5.50
2023-04-27T00:10:39.955Z,5.50
2023-04-27T00:13:08.176Z,4.80
2023-04-27T00:15:38.142Z,4.57
2023-04-27T00:18:06.997Z,5.20
2023-04-27T00:20:35.126Z,4.90
2023-04-27T00:23:03.587Z,4.80
2023-04-27T00:25:32.054Z,5.40
2023-04-27T00:28:00.153Z,5.88
2023-04-27T00:30:28.745Z,4.80
2023-04-27T00:32:58.253Z,5.60
2023-04-27T00:35:26.576Z,5.03
2023-04-27T00:37:55.115Z,4.88
2023-04-27T00:40:23.327Z,4.68
2023-04-27T00:42:51.974Z,5.32
2023-04-27T00:45:20.113Z,5.20
2023-04-27T00:47:48.433Z,5.72
2023-04-27T00:50:20.385Z,5.30
2023-04-27T00:52:48.890Z,5.88
2023-04-27T00:55:20.389Z,5.72
2023-04-27T00:57:48.519Z,5.85
2023-04-27T01:00:18.954Z,5.18
2023-04-27T01:02:49.330Z,5.82
2023-04-27T01:05:21.154Z,4.90
2023-04-27T01:07:49.669Z,5.55
2023-04-27T01:10:18.326Z,6.35
2023-04-27T01:12:46.958Z,6.45
2023-04-27T01:15:15.241Z,5.57
2023-04-27T01:17:43.849Z,6.13
2023-04-27T01:20:13.184Z,6.07
2023-04-27T01:22:43.100Z,5.47
2023-04-27T01:25:15.258Z,4.60
2023-04-27T01:27:43.662Z,5.18
2023-04-27T01:30:16.126Z,5.03
2023-04-27T01:32:44.571Z,4.97
2023-04-27T01:35:12.992Z,5.72
2023-04-27T01:37:41.569Z,5.28
2023-04-27T01:40:14.317Z,4.25
2023-04-27T01:42:42.765Z,4.47
2023-04-27T01:45:12.939Z,4.28
2023-04-27T01:47:41.178Z,4.45
2023-04-27T01:50:10.174Z,4.72
2023-04-27T01:52:41.716Z,5.50
2023-04-27T02:01:25.696Z,5.50
2023-04-27T02:03:54.398Z,5.43
2023-04-27T02:06:43.321Z,5.70
2023-04-27T02:09:11.473Z,4.80
2023-04-27T02:12:02.160Z,5.35
2023-04-27T02:14:31.572Z,4.90
2023-04-27T02:23:09.265Z,5.00
2023-04-27T03:19:26.260Z,5.93
2023-04-27T03:21:54.409Z,4.85
2023-04-27T03:24:25.593Z,4.70
2023-04-27T03:26:53.904Z,6.00
2023-04-27T03:29:22.559Z,4.75
2023-04-27T03:31:51.424Z,4.72
2023-04-27T03:34:21.044Z,4.40
2023-04-27T03:36:52.251Z,4.60
2023-04-27T03:39:27.011Z,5.00
2023-04-27T03:41:55.142Z,4.82
2023-04-27T03:44:24.312Z,5.40
2023-04-27T03:46:56.886Z,5.45
2023-04-27T03:49:25.885Z,5.78
2023-04-27T03:51:55.622Z,4.85
2023-04-27T03:54:23.942Z,5.75
2023-04-27T03:56:52.439Z,6.35
2023-04-27T03:59:20.467Z,5.20
2023-04-27T04:01:51.957Z,5.43
2023-04-27T04:04:21.713Z,5.07
2023-04-27T04:06:50.174Z,6.05
2023-04-27T04:09:20.876Z,5.35
2023-04-27T04:11:50.659Z,4.72
2023-04-27T04:14:19.393Z,5.05
2023-04-27T04:16:47.722Z,4.80
2023-04-27T04:19:16.108Z,5.90
2023-04-27T04:21:44.266Z,5.68
2023-04-27T04:24:12.359Z,4.93
2023-04-27T04:26:42.046Z,5.25
2023-04-27T04:29:11.208Z,4.80
2023-04-27T04:31:43.612Z,4.93
2023-04-27T04:34:11.933Z,5.25
2023-04-27T04:36:40.525Z,4.95
2023-04-27T04:39:09.024Z,5.35
2023-04-27T04:41:37.469Z,4.35
2023-04-27T04:44:07.118Z,4.28
2023-04-27T04:46:37.265Z,5.88
2023-04-27T04:49:05.759Z,4.40
2023-04-27T04:51:34.656Z,3.90
2023-04-27T04:54:02.949Z,5.28
2023-04-27T04:56:31.317Z,5.35
2023-04-27T04:59:02.467Z,5.57
2023-04-27T05:01:34.336Z,6.57
2023-04-27T05:04:02.488Z,5.63
2023-04-27T05:06:30.657Z,5.78
2023-04-27T05:08:59.137Z,6.70
2023-04-27T05:11:27.468Z,6.35
2023-04-27T05:13:55.464Z,5.00
2023-04-27T05:16:23.463Z,7.40
2023-04-27T05:18:54.774Z,5.93
2023-04-27T05:21:22.853Z,5.88
2023-04-27T05:23:50.961Z,6.95
2023-04-27T05:26:20.190Z,6.13
2023-04-27T05:28:49.584Z,6.07
2023-04-27T05:31:17.669Z,6.40
2023-04-27T05:33:45.876Z,6.40
2023-04-27T05:36:15.555Z,6.85
2023-04-27T05:38:43.612Z,6.00
2023-04-27T05:41:11.814Z,6.70
2023-04-27T05:43:39.972Z,6.78
2023-04-27T05:46:08.310Z,7.22
2023-04-27T05:48:36.493Z,6.43
2023-04-27T05:51:05.626Z,7.05
2023-04-27T05:53:35.783Z,6.63
2023-04-27T05:56:04.716Z,6.82
2023-04-27T05:58:33.200Z,6.90
2023-04-27T06:01:02.741Z,7.00
2023-04-27T06:03:31.237Z,6.85
2023-04-27T06:06:02.317Z,6.57
2023-04-27T06:08:30.867Z,8.70
2023-04-27T06:11:00.492Z,6.85
2023-04-27T06:13:28.643Z,7.20
2023-04-27T06:15:56.841Z,7.10
2023-04-27T06:18:25.072Z,5.55
2023-04-27T06:20:53.161Z,6.43
2023-04-27T06:23:21.291Z,6.18
2023-04-27T06:25:49.392Z,5.63
2023-04-27T06:28:18.949Z,7.07
2023-04-27T06:30:47.347Z,6.65
2023-04-27T06:33:15.508Z,7.93
2023-04-27T06:35:45.716Z,6.10
2023-04-27T06:38:15.358Z,6.25
2023-04-27T06:40:43.428Z,5.70
2023-04-27T06:43:11.569Z,7.20
2023-04-27T06:45:41.567Z,6.88
2023-04-27T06:48:09.889Z,8.35
2023-04-27T06:50:38.091Z,6.53
2023-04-27T06:53:06.139Z,7.10
2023-04-27T06:55:34.228Z,6.85
2023-04-27T06:58:02.264Z,7.13
2023-04-27T07:00:30.672Z,7.07
2023-04-27T07:03:00.590Z,6.55
2023-04-27T07:05:29.167Z,5.78
2023-04-27T07:07:57.303Z,6.00
2023-04-27T07:10:25.466Z,5.63
2023-04-27T07:12:53.687Z,5.28
2023-04-27T07:15:22.771Z,4.80
2023-04-27T07:17:54.089Z,4.55
2023-04-27T07:20:23.899Z,4.68
2023-04-27T07:22:52.076Z,5.35
2023-04-27T07:25:20.836Z,4.30
2023-04-27T07:27:49.238Z,4.75
2023-04-27T07:30:17.960Z,4.80
2023-04-27T07:32:46.917Z,4.32
2023-04-27T07:35:15.194Z,5.00
2023-04-27T07:37:45.581Z,4.97
2023-04-27T07:40:16.810Z,5.97
2023-04-27T07:42:46.382Z,4.93
2023-04-27T07:45:15.389Z,4.65
2023-04-27T07:47:44.167Z,4.25
2023-04-27T07:50:12.798Z,4.55
2023-04-27T07:52:41.307Z,4.20
2023-04-27T07:55:11.170Z,4.38
2023-04-27T07:57:39.363Z,4.43
2023-04-27T08:00:11.346Z,3.75
2023-04-27T08:02:42.954Z,3.92
2023-04-27T08:05:12.099Z,4.35
2023-04-27T08:07:44.402Z,3.45
2023-04-27T08:10:17.124Z,4.30
2023-04-27T08:12:45.320Z,4.50
2023-04-27T08:15:13.854Z,3.97
2023-04-27T08:17:43.861Z,4.20
2023-04-27T08:20:13.001Z,4.10
2023-04-27T08:22:41.690Z,4.10
2023-04-27T08:25:10.481Z,3.88
2023-04-27T08:27:40.611Z,3.17
2023-04-27T08:30:10.063Z,3.65
2023-04-27T08:32:38.342Z,4.65
2023-04-27T08:35:07.108Z,3.30
2023-04-27T08:37:35.207Z,3.10
2023-04-27T08:40:06.643Z,3.30
2023-04-27T08:42:34.848Z,3.85
2023-04-27T08:45:05.022Z,4.03
2023-04-27T08:47:42.902Z,3.15
2023-04-27T08:50:13.272Z,3.55
2023-04-27T08:52:41.466Z,3.50
2023-04-27T08:55:10.219Z,4.60
2023-04-27T08:57:38.335Z,4.20
2023-04-27T09:00:13.212Z,4.60
2023-04-27T09:02:48.199Z,3.80
2023-04-27T09:05:18.379Z,3.70
2023-04-27T09:08:00.765Z,3.97
2023-04-27T09:10:30.083Z,4.68
2023-04-27T09:12:59.947Z,4.68
2023-04-27T09:15:29.947Z,3.90
2023-04-27T09:17:59.283Z,4.95
2023-04-27T09:20:28.693Z,4.18
2023-04-27T09:22:58.533Z,3.85
2023-04-27T09:25:28.758Z,4.60
2023-04-27T09:27:58.342Z,4.95
2023-04-27T09:30:27.100Z,4.18
2023-04-27T09:32:57.888Z,4.50
2023-04-27T09:35:27.529Z,4.60
2023-04-27T09:37:56.064Z,4.53
2023-04-27T09:40:27.887Z,3.53
2023-04-27T09:42:57.170Z,3.53
2023-04-27T09:45:26.035Z,3.95
2023-04-27T09:47:56.178Z,4.93
2023-04-27T09:50:24.380Z,4.85
2023-04-27T09:52:52.549Z,6.30
2023-04-27T09:55:25.985Z,6.05
2023-04-27T09:57:59.989Z,6.97
2023-04-27T10:00:43.933Z,6.50
2023-04-27T10:03:23.731Z,5.22
2023-04-27T10:06:32.436Z,4.85
2023-04-27T10:09:05.472Z,5.03
2023-04-27T10:11:40.872Z,5.15
2023-04-27T10:14:11.090Z,5.10
2023-04-27T10:16:46.561Z,6.03
2023-04-27T10:19:16.517Z,7.13
2023-04-27T10:21:57.946Z,6.85
2023-04-27T10:24:41.811Z,5.95
2023-04-27T10:27:12.355Z,5.78
2023-04-27T10:29:42.305Z,6.72
2023-04-27T10:32:12.729Z,6.70
2023-04-27T10:34:43.535Z,6.43
2023-04-27T10:37:14.155Z,5.80
2023-04-27T10:39:49.027Z,5.80
2023-04-27T10:42:29.222Z,6.32
2023-04-27T10:44:58.918Z,5.70
2023-04-27T10:47:38.058Z,6.13
2023-04-27T10:50:11.468Z,5.45
2023-04-27T10:52:42.221Z,5.35
2023-04-27T10:55:17.995Z,5.30
2023-04-27T10:57:50.956Z,5.65
2023-04-27T11:00:25.296Z,5.20
2023-04-27T11:02:54.805Z,4.45
2023-04-27T11:05:29.419Z,6.10
2023-04-27T11:08:07.036Z,4.75
2023-04-27T11:10:36.459Z,5.20
2023-04-27T11:13:09.865Z,5.75
2023-04-27T11:15:48.956Z,6.07
2023-04-27T11:18:18.412Z,6.07
2023-04-27T11:20:50.761Z,5.32
2023-04-27T11:23:26.807Z,7.95
2023-04-27T11:25:55.393Z,8.02
2023-04-27T11:28:24.690Z,5.18
2023-04-27T11:30:59.379Z,5.10
2023-04-27T11:33:28.132Z,5.72
2023-04-27T11:35:58.206Z,5.22
2023-04-27T11:38:27.709Z,5.22
2023-04-27T11:41:05.570Z,7.25
2023-04-27T11:43:34.342Z,4.57
2023-04-27T11:46:04.393Z,5.10
2023-04-27T11:48:33.537Z,4.82
2023-04-27T11:51:03.092Z,6.05
2023-04-27T11:53:33.239Z,4.80
2023-04-27T11:56:02.323Z,4.72
2023-04-27T11:58:31.219Z,5.70
2023-04-27T12:00:59.309Z,5.55
2023-04-27T12:03:36.737Z,5.72
2023-04-27T12:06:27.151Z,5.55
2023-04-27T12:08:54.719Z,4.80
2023-04-27T12:11:23.139Z,6.97
2023-04-27T12:13:52.471Z,5.47
2023-04-27T12:16:22.132Z,5.72
2023-04-27T12:18:51.267Z,5.43
2023-04-27T12:21:21.360Z,5.40
2023-04-27T12:23:49.450Z,6.20
2023-04-27T12:26:17.472Z,5.28
2023-04-27T12:28:45.703Z,4.70
2023-04-27T12:31:18.973Z,4.90
2023-04-27T12:33:49.250Z,5.40
2023-04-27T12:36:17.306Z,4.75
2023-04-27T12:38:46.749Z,4.95
2023-04-27T12:41:14.894Z,6.10
2023-04-27T12:43:43.602Z,4.75
2023-04-27T12:46:11.678Z,4.40
2023-04-27T12:48:39.892Z,4.80
2023-04-27T12:51:08.073Z,4.68
2023-04-27T12:53:36.127Z,4.63
2023-04-27T12:56:06.023Z,4.93
2023-04-27T12:58:34.347Z,5.85
2023-04-27T13:01:02.550Z,5.95
2023-04-27T13:03:30.773Z,6.18
2023-04-27T13:05:59.276Z,4.68
2023-04-27T13:08:27.693Z,5.22
2023-04-27T13:10:55.892Z,5.07
2023-04-27T13:13:25.420Z,5.88
2023-04-27T13:15:53.429Z,4.90
2023-04-27T13:18:21.908Z,3.95
2023-04-27T13:20:52.593Z,4.22
2023-04-27T13:23:20.746Z,4.32
2023-04-27T13:25:49.683Z,5.15
2023-04-27T13:28:17.923Z,4.90
2023-04-27T13:30:48.918Z,5.20
2023-04-27T13:33:23.149Z,4.97
2023-04-27T13:35:52.073Z,5.97
2023-04-27T13:38:20.461Z,4.40
2023-04-27T13:40:48.681Z,4.80
2023-04-27T13:43:16.656Z,4.40
2023-04-27T13:45:45.584Z,4.70
2023-04-27T13:48:15.174Z,4.25
2023-04-27T13:50:43.104Z,4.00
2023-04-27T13:53:13.363Z,3.50
2023-04-27T13:55:41.618Z,3.60
2023-04-27T13:58:10.866Z,4.18
2023-04-27T14:00:39.188Z,3.53
2023-04-27T14:03:09.188Z,3.90
2023-04-27T14:05:38.848Z,4.95
2023-04-27T14:08:07.007Z,4.43
2023-04-27T14:10:37.763Z,4.80
2023-04-27T14:13:06.253Z,3.67
2023-04-27T14:15:37.141Z,3.83
2023-04-27T14:18:07.111Z,4.40
2023-04-27T14:20:35.672Z,4.30
2023-04-27T14:23:07.033Z,4.88
2023-04-27T14:25:35.380Z,5.47
2023-04-27T14:28:05.209Z,3.80
2023-04-27T14:30:33.845Z,4.32
2023-04-27T14:33:02.780Z,5.13
2023-04-27T14:35:31.095Z,3.22
2023-04-27T14:38:02.459Z,4.25
2023-04-27T14:40:32.490Z,3.42
2023-04-27T14:43:00.559Z,3.85
2023-04-27T14:45:33.865Z,3.42
2023-04-27T14:48:08.638Z,3.10
2023-04-27T14:50:36.756Z,3.67
2023-04-27T14:53:04.980Z,3.63
2023-04-27T14:55:34.413Z,3.30
2023-04-27T14:58:02.551Z,3.70
2023-04-27T15:00:31.436Z,3.60
2023-04-27T15:02:59.649Z,4.60
2023-04-27T15:05:27.714Z,2.97
2023-04-27T15:07:55.958Z,3.70
2023-04-27T15:10:24.055Z,3.60
2023-04-27T15:12:53.558Z,3.43
2023-04-27T15:15:21.447Z,3.20
2023-04-27T15:17:49.747Z,3.27
2023-04-27T15:20:18.638Z,4.23
2023-04-27T15:22:47.102Z,3.92
2023-04-27T15:25:15.404Z,2.95
2023-04-27T15:27:43.651Z,2.45
2023-04-27T15:30:14.710Z,2.45
2023-04-27T15:32:42.718Z,2.60
2023-04-27T15:35:11.061Z,2.30
2023-04-27T15:37:39.109Z,2.92
2023-04-27T15:40:08.852Z,2.35
2023-04-27T15:42:36.851Z,2.00
2023-04-27T15:45:05.732Z,3.17
2023-04-27T15:47:35.793Z,2.60
2023-04-27T15:50:03.987Z,2.10
2023-04-27T15:52:32.415Z,2.00
2023-04-27T15:55:00.528Z,2.33
2023-04-27T15:57:29.051Z,2.60
2023-04-27T15:59:56.990Z,2.25
2023-04-27T16:02:25.140Z,2.40
2023-04-27T16:04:57.072Z,2.55
2023-04-27T16:07:25.069Z,2.13
2023-04-27T16:09:53.384Z,2.47
2023-04-27T16:12:21.471Z,2.95
2023-04-27T16:14:52.079Z,2.40
2023-04-27T16:17:20.804Z,2.38
2023-04-27T16:19:49.206Z,2.30
2023-04-27T16:22:18.806Z,2.53
2023-04-27T16:24:46.861Z,2.28
2023-04-27T16:27:15.225Z,2.10
2023-04-27T16:29:43.198Z,2.35
2023-04-27T16:32:11.934Z,2.30
2023-04-27T16:34:40.122Z,2.50
2023-04-27T16:37:08.482Z,3.07
2023-04-27T16:39:37.955Z,2.63
2023-04-27T16:42:06.451Z,2.23
2023-04-27T16:44:34.654Z,2.60
2023-04-27T16:47:02.621Z,2.80
2023-04-27T16:49:30.666Z,4.37
2023-04-27T16:51:58.701Z,3.60
2023-04-27T16:54:27.067Z,3.93
2023-04-27T16:56:56.564Z,3.40
2023-04-27T16:59:25.007Z,3.90
2023-04-27T17:01:53.222Z,3.57
2023-04-27T17:04:21.572Z,3.27
2023-04-27T17:06:49.905Z,3.37
2023-04-27T17:09:17.959Z,3.60
2023-04-27T17:11:46.413Z,3.07
2023-04-27T17:14:15.719Z,4.30
2023-04-27T17:16:43.762Z,3.20
2023-04-27T17:19:13.216Z,3.13
2023-04-27T17:21:41.647Z,3.10
2023-04-27T17:24:10.678Z,3.17
2023-04-27T17:26:39.203Z,3.17
2023-04-27T17:29:07.415Z,3.97
2023-04-27T17:31:36.956Z,3.40
2023-04-27T17:34:05.282Z,3.10
2023-04-27T17:36:33.582Z,3.70
2023-04-27T17:39:02.136Z,3.42
2023-04-27T17:41:30.257Z,3.50
2023-04-27T17:43:59.063Z,4.10
2023-04-27T17:46:27.513Z,3.90
2023-04-27T17:48:57.445Z,3.80
2023-04-27T17:51:25.441Z,4.20
2023-04-27T17:53:53.522Z,4.38
2023-04-27T17:56:21.843Z,3.80
2023-04-27T17:58:49.895Z,3.70
2023-04-27T18:01:18.139Z,3.35
2023-04-27T18:03:46.314Z,4.40
2023-04-27T18:06:22.356Z,3.95
2023-04-27T18:08:56.146Z,4.30
2023-04-27T18:11:30.129Z,3.78
2023-04-27T18:14:03.126Z,4.65
2023-04-27T18:16:36.002Z,4.07
2023-04-27T18:19:13.452Z,4.65
2023-04-27T18:21:53.861Z,3.78
2023-04-27T18:24:31.116Z,3.75
2023-04-27T18:27:07.655Z,4.43
2023-04-27T18:29:45.399Z,5.07
2023-04-27T18:32:22.286Z,5.18
2023-04-27T18:34:59.988Z,4.07
2023-04-27T18:37:37.770Z,4.40
2023-04-27T18:40:15.208Z,3.50
2023-04-27T18:42:51.505Z,4.65
2023-04-27T18:45:28.340Z,4.47
2023-04-27T18:48:05.663Z,3.88
2023-04-27T18:50:42.805Z,4.63
2023-04-27T18:53:23.767Z,3.70
2023-04-27T18:56:00.382Z,4.95
2023-04-27T18:58:37.228Z,4.65
2023-04-27T19:01:15.537Z,5.45
2023-04-27T19:03:51.019Z,5.25
2023-04-27T19:06:38.180Z,5.50
2023-04-27T19:09:51.348Z,5.20
2023-04-27T19:12:27.357Z,4.18
2023-04-27T19:15:22.535Z,4.78
2023-04-27T19:18:19.806Z,5.35
2023-04-27T19:21:05.109Z,5.78
2023-04-27T19:23:40.463Z,4.60
2023-04-27T19:26:18.811Z,5.10
2023-04-27T19:28:55.669Z,5.13
2023-04-27T19:31:30.502Z,5.65
2023-04-27T19:34:06.022Z,5.97
2023-04-27T19:36:35.894Z,5.75
2023-04-27T19:39:04.564Z,7.05
2023-04-27T19:41:34.166Z,5.28
2023-04-27T19:44:02.263Z,5.65
2023-04-27T19:46:32.239Z,5.85
2023-04-27T19:49:01.014Z,5.95
2023-04-27T19:51:29.455Z,6.50
2023-04-27T19:54:05.050Z,5.90
2023-04-27T19:56:41.944Z,5.90
2023-04-27T19:59:19.229Z,5.63
2023-04-27T20:01:55.916Z,4.72
2023-04-27T20:04:28.070Z,4.75
2023-04-27T20:07:18.436Z,4.95
2023-04-27T20:10:14.220Z,5.13
2023-04-27T20:13:04.820Z,5.20
2023-04-27T20:15:32.846Z,5.03
2023-04-27T20:18:00.899Z,4.35
2023-04-27T20:20:29.126Z,4.65
2023-04-27T20:22:58.293Z,6.30
2023-04-27T20:25:44.765Z,5.20
2023-04-27T20:28:14.310Z,4.60
2023-04-27T20:30:43.166Z,5.95
2023-04-27T20:33:51.237Z,5.90
2023-04-27T20:36:19.360Z,6.28
2023-04-27T20:38:47.740Z,5.90
2023-04-27T20:41:15.953Z,5.30
2023-04-27T20:43:45.540Z,5.50
2023-04-27T20:46:14.518Z,6.07
2023-04-27T20:48:42.584Z,5.88
2023-04-27T20:51:10.696Z,7.05
2023-04-27T20:53:40.126Z,5.25
2023-04-27T20:56:08.984Z,5.10
2023-04-27T20:58:37.149Z,5.20
2023-04-27T21:01:06.813Z,6.30
2023-04-27T21:03:35.666Z,6.03
2023-04-27T21:06:03.812Z,6.03
2023-04-27T21:09:08.243Z,6.18
2023-04-27T21:16:59.294Z,5.57
2023-04-27T21:20:43.171Z,5.90
2023-04-27T21:24:08.247Z,6.40
2023-04-27T21:27:51.046Z,6.20
2023-04-27T21:31:34.456Z,5.60
2023-04-27T21:35:01.894Z,5.97
2023-04-27T21:39:03.029Z,6.65
2023-04-27T21:43:03.594Z,5.95
2023-04-27T21:46:46.802Z,5.22
2023-04-27T21:50:28.429Z,6.00
2023-04-27T21:52:57.841Z,5.75
2023-04-27T21:55:44.477Z,6.68
2023-04-27T21:59:25.773Z,6.45
2023-04-27T22:02:12.462Z,6.40
2023-04-27T22:05:37.284Z,6.68
2023-04-27T22:09:01.574Z,7.22
2023-04-27T22:12:25.134Z,6.15
2023-04-27T22:15:14.297Z,6.25
2023-04-27T22:18:37.618Z,7.03
2023-04-27T22:21:24.627Z,6.95
2023-04-27T22:23:52.747Z,5.85
2023-04-27T22:26:20.913Z,6.65
2023-04-27T22:28:48.980Z,5.97
2023-04-27T22:31:18.929Z,6.10
2023-04-27T22:33:47.059Z,6.80
2023-04-27T22:36:15.212Z,7.03
2023-04-27T22:38:43.149Z,6.65
2023-04-27T22:41:11.235Z,6.57
2023-04-27T22:43:39.362Z,7.28
2023-04-27T22:46:07.342Z,5.25
2023-04-27T22:48:37.022Z,6.20
2023-04-27T22:51:09.369Z,5.97
2023-04-27T22:53:37.501Z,6.07
2023-04-27T22:56:06.139Z,5.55
2023-04-27T22:58:35.340Z,5.95
2023-04-27T23:01:03.617Z,5.55
2023-04-27T23:03:32.045Z,5.90
2023-04-27T23:06:02.351Z,6.43
2023-04-27T23:08:30.484Z,5.70
2023-04-27T23:10:58.528Z,5.10
2023-04-27T23:13:27.696Z,5.28
2023-04-27T23:15:55.865Z,5.28
2023-04-27T23:18:23.876Z,5.90
2023-04-27T23:20:54.593Z,6.10
2023-04-27T23:23:24.022Z,6.03
2023-04-27T23:25:51.973Z,6.13
2023-04-27T23:28:20.822Z,5.65
2023-04-27T23:30:53.986Z,4.95
2023-04-27T23:33:22.354Z,5.10
2023-04-27T23:35:50.351Z,5.43
2023-04-27T23:38:18.331Z,5.32
2023-04-27T23:40:47.765Z,4.72
2023-04-27T23:43:15.741Z,5.32
2023-04-27T23:45:43.883Z,5.13
2023-04-27T23:48:12.308Z,5.55
2023-04-27T23:50:40.297Z,5.20
2023-04-27T23:53:08.467Z,5.53
2023-04-27T23:55:37.035Z,4.55
2023-04-27T23:58:06.629Z,4.60
